ADDS METAR Data INFO
IDs: Format: Raw Decoded Include TAF

Data at: 1119 UTC 17 Jul 2018

KSBA 171053Z AUTO 08004KT 10SM BKN008 18/16 A2995 RMK AO2 SLP141 T01780156 $
KSBA 170953Z AUTO 11006KT 10SM OVC008 18/16 A2995 RMK AO2 SLP142 T01830156 $
KSBA 170853Z AUTO 11007KT 10SM OVC009 18/16 A2995 RMK AO2 SLP141 T01830161 50002 $
KSBA 170753Z AUTO 09009KT 10SM OVC009 19/16 A2995 RMK AO2 SLP143 T01890161 402440178 $
KSBA 170653Z AUTO 09009KT 10SM BKN009 18/16 A2994 RMK AO2 SLP139 T01830161 $
KSBA 170648Z AUTO 09008KT 10SM BKN009 18/16 A2994 RMK AO2 $
KSBA 170606Z AUTO 09006KT 10SM FEW009 19/16 A2994 RMK AO2 T01890161 $
KSBA 170553Z AUTO 09006KT 10SM CLR 19/16 A2994 RMK AO2 SLP139 T01890161 10239 20183 53009 $
KSBA 170453Z 12006KT 10SM CLR 19/16 A2994 RMK AO2 SLP137 T01890161 $
KSBA 170353Z 00000KT 10SM CLR 19/16 A2992 RMK AO2 SLP130 T01890156 $
KSBA 170253Z 25005KT 10SM CLR 19/16 A2991 RMK AO2 SLP129 T01940161 55002 $
KSBA 170153Z 25006KT 10SM CLR 22/17 A2991 RMK AO2 SLP127 T02220167 $
KSBA 170053Z 26007KT 10SM CLR 23/16 A2991 RMK AO2 SLP128 T02330156 $
KSBA 162353Z 27011KT 10SM SCT270 24/16 A2992 RMK AO2 SLP131 T02390156 10244 20211 58017 $
KSBA 162253Z 25010KT 10SM CLR 24/16 A2994 RMK AO2 SLP137 T02390156 $
KSBA 162153Z 24010KT 10SM FEW010 23/16 A2996 RMK AO2 SLP144 T02280156 $
KSBA 162053Z 23009KT 10SM FEW010 BKN270 23/16 A2997 RMK AO2 SLP148 T02280161 58008 $
KSBA 161953Z 22008KT 10SM CLR 22/16 A2998 RMK AO2 SLP152 T02220161 $
KSBA 161853Z 24007KT 10SM CLR 22/16 A2999 RMK AO2 SLP155 T02220156 $
KSBA 161753Z 22008KT 10SM CLR 22/16 A2999 RMK AO2 SLP156 T02170156 10217 20178 53002 $
KSBA 161653Z 23008KT 10SM CLR 22/15 A2998 RMK AO2 SLP153 T02170150 $
KSBA 161553Z 21005KT 10SM CLR 21/16 A2999 RMK AO2 SLP156 T02060156 $
KSBA 161517Z VRB04KT 10SM SCT011 20/16 A2999 RMK AO2 T02000156 $
KSBA 161453Z 26003KT 10SM BKN011 19/16 A2999 RMK AO2 SLP154 T01890156 53016 $
KSBA 161353Z 17003KT 10SM SCT015 18/16 A2998 RMK AO2 SLP150 T01830161 $
KSBA 161253Z 10004KT 10SM SCT010 18/16 A2995 RMK AO2 SLP142 T01830161 $
KSBA 161210Z AUTO 09005KT 10SM FEW009 18/16 A2995 RMK AO2 T01830161 $
KSBA 161153Z AUTO 08005KT 10SM CLR 18/16 A2994 RMK AO2 SLP138 T01830161 10194 20183 55001 $
KSBA 161053Z AUTO 10004KT 10SM CLR 18/16 A2992 RMK AO2 SLP133 T01830161 $
KSBA 160953Z AUTO 09006KT 10SM CLR 18/16 A2993 RMK AO2 SLP136 T01830156 $
KSBA 160853Z AUTO 10004KT 10SM CLR 19/16 A2994 RMK AO2 SLP139 T01890161 58002 $
KSBA 160753Z AUTO 13003KT 10SM CLR 19/16 A2994 RMK AO2 SLP139 T01890161 402560183 $
KSBA 160653Z AUTO 14003KT 10SM CLR 19/16 A2996 RMK AO2 SLP144 T01890161 $
KSBA 160553Z AUTO 15004KT 10SM CLR 19/17 A2995 RMK AO2 SLP141 T01940167 10250 20194 53020 $
KSBA 160453Z 13003KT 10SM CLR 20/17 A2993 RMK AO2 SLP133 T02000167 $
KSBA 160353Z 14006KT 10SM CLR 20/17 A2990 RMK AO2 SLP125 T02000172 $
KSBA 160253Z 00000KT 10SM CLR 21/17 A2989 RMK AO2 SLP120 T02110167 55004 $
KSBA 160153Z 15007KT 10SM CLR 22/17 A2988 RMK AO2 SLP117 T02170172 $
KSBA 160053Z 25006KT 10SM CLR 24/15 A2988 RMK AO2 SLP118 T02440150 $
KSBA 152353Z 27006KT 10SM CLR 25/16 A2990 RMK AO2 SLP124 T02500156 10256 20233 56019 $